Main page
METAR-TAF:

Airports :

Longyearbyen, Longyear,

Svalbard Airport

latitude: Norway, longitude: 78-15N, elevation: 015-28E m

Current weather observation

The report was made 1 hour and 5 minutes ago, at 15:50 UTC
Wind 22 kt from the East/Southeast
Temperature 3°C
Humidity 70%
Pressure 996 hPa
Visibility 10 km or more
Broken clouds at a height of 3100 ft
light rain, snow

METAR: ENSB 291550Z 11022KT 9999 -RASN BKN031 03/M02 Q0996 RMK WIND 1400FT /////KT

Time: 16:55 (16:55 UTC)

Forecast

Forecast valid from 29 at 12 UTC to 30 at 12 UTC
Wind 15 kt from the East/Southeast with gusts up to 25 kt
Visibility 10 km or more
Few clouds at a height of 1500 ft
Scattered clouds at a height of 3000 ft
Temporary
from 29 at 18 UTC to 30 at 09 UTC
Wind 25 kt from the East with gusts up to 35 kt

TAF: ENSB 2912/3012 11015G25KT 9999 FEW015 SCT030 TEMPO 2918/3009 09025G35KT

METAR-TAF

Weather observations and forecasts of more than 4000 airports (METAR and TAF reports).

The available stations are represented by yellow and red dots on the map.

Hover mouse over dot to see the name of the station.

Then click to see weather observations and forecasts.

To change the map : click on the green buttons with a black cross to zoom in, on the green button with a dash to zoom out, or on the green arrows for adjacent maps.


METAR-TAF: